createdAt,value
2022-12-17T00:00:20.020Z,1.28
2022-12-17T00:03:29.841Z,0.32
2022-12-17T00:06:17.271Z,-0.08
2022-12-17T00:09:05.157Z,0.18
2022-12-17T00:12:09.177Z,0.18
2022-12-17T00:14:56.496Z,0.09
2022-12-17T00:17:43.460Z,-0.16
2022-12-17T00:20:30.649Z,-0.28
2022-12-17T00:23:22.604Z,-0.58
2022-12-17T00:26:14.440Z,-0.83
2022-12-17T00:29:01.658Z,-0.87
2022-12-17T00:31:49.622Z,-1.02
2022-12-17T00:34:37.844Z,-1.19
2022-12-17T00:37:24.835Z,-1.32
2022-12-17T00:40:11.345Z,-1.18
2022-12-17T00:42:58.278Z,-1.21
2022-12-17T00:45:45.395Z,-1.33
2022-12-17T00:48:32.864Z,-1.27
2022-12-17T00:51:20.024Z,-1.36
2022-12-17T00:54:07.024Z,-1.42
2022-12-17T00:56:53.824Z,-1.40
2022-12-17T00:59:43.226Z,-1.26
2022-12-17T01:02:30.407Z,-1.06
2022-12-17T01:05:19.101Z,-1.05
2022-12-17T01:08:05.695Z,-1.11
2022-12-17T01:10:55.586Z,-1.06
2022-12-17T01:13:43.933Z,-1.13
2022-12-17T01:16:32.974Z,-1.14
2022-12-17T01:19:20.136Z,-1.07
2022-12-17T01:22:07.446Z,-0.80
2022-12-17T01:24:56.803Z,0.59
2022-12-17T01:27:43.540Z,1.41
2022-12-17T01:30:30.940Z,1.79
2022-12-17T01:33:24.425Z,1.98
2022-12-17T01:36:15.752Z,1.91
2022-12-17T01:39:03.116Z,2.00
2022-12-17T01:41:50.087Z,2.33
2022-12-17T01:44:58.087Z,2.73
2022-12-17T01:48:05.250Z,2.85
2022-12-17T01:50:58.531Z,2.91
2022-12-17T01:53:49.734Z,1.99
2022-12-17T01:56:37.233Z,0.97
2022-12-17T01:59:25.613Z,0.52
2022-12-17T02:02:13.141Z,1.22
2022-12-17T02:05:00.772Z,2.20
2022-12-17T02:08:07.869Z,2.49
2022-12-17T02:11:08.191Z,2.54
2022-12-17T02:14:07.537Z,2.03
2022-12-17T02:17:01.489Z,0.97
2022-12-17T02:20:08.368Z,0.45
2022-12-17T02:23:06.820Z,0.85
2022-12-17T02:26:04.818Z,1.38
2022-12-17T02:28:53.885Z,1.94
2022-12-17T02:31:43.157Z,1.98
2022-12-17T02:34:30.673Z,1.68
2022-12-17T02:37:18.002Z,1.51
2022-12-17T02:40:04.930Z,1.33
2022-12-17T02:42:53.861Z,1.19
2022-12-17T02:45:41.941Z,0.88
2022-12-17T02:48:31.268Z,0.63
2022-12-17T02:51:18.703Z,0.50
2022-12-17T02:54:12.262Z,0.38
2022-12-17T02:56:59.305Z,0.26
2022-12-17T02:59:46.104Z,0.13
2022-12-17T03:02:35.372Z,-0.06
2022-12-17T03:05:44.112Z,-0.26
2022-12-17T03:08:29.688Z,-0.37
2022-12-17T03:11:16.802Z,-0.34
2022-12-17T03:14:03.838Z,-0.42
2022-12-17T03:16:51.296Z,-0.56
2022-12-17T03:19:39.682Z,-0.39
2022-12-17T03:22:26.201Z,-0.30
2022-12-17T03:25:16.290Z,-0.27
2022-12-17T03:28:02.914Z,-0.15
2022-12-17T03:30:49.850Z,-0.09
2022-12-17T03:33:36.880Z,0.08
2022-12-17T03:36:24.533Z,0.20
2022-12-17T03:39:11.459Z,0.35
2022-12-17T03:41:58.635Z,0.29
2022-12-17T03:44:45.392Z,0.22
2022-12-17T03:47:31.887Z,0.17
2022-12-17T03:50:18.394Z,0.16
2022-12-17T03:53:05.311Z,0.04
2022-12-17T03:55:52.638Z,0.06
2022-12-17T03:58:39.549Z,0.08
2022-12-17T04:01:27.410Z,-0.02
2022-12-17T04:04:14.494Z,-0.09
2022-12-17T04:07:01.199Z,-0.13
2022-12-17T04:09:47.704Z,-0.32
2022-12-17T04:12:34.915Z,-0.29
2022-12-17T04:15:22.296Z,1.03
2022-12-17T04:18:09.573Z,1.57
2022-12-17T04:20:56.535Z,1.37
2022-12-17T04:23:43.500Z,1.18
2022-12-17T04:26:30.505Z,0.88
2022-12-17T04:29:17.115Z,0.78
2022-12-17T04:32:04.551Z,0.73
2022-12-17T04:34:51.873Z,0.60
2022-12-17T04:37:38.682Z,0.42
2022-12-17T04:40:27.757Z,0.37
2022-12-17T04:43:14.934Z,0.46
2022-12-17T04:46:02.069Z,0.60
2022-12-17T04:48:48.978Z,0.72
2022-12-17T04:51:36.148Z,0.82
2022-12-17T04:54:23.336Z,0.72
2022-12-17T04:57:10.353Z,0.60
2022-12-17T04:59:57.474Z,0.58
2022-12-17T05:02:44.486Z,0.56
2022-12-17T05:05:31.506Z,0.51
2022-12-17T05:08:18.723Z,0.44
2022-12-17T05:11:06.146Z,0.33
2022-12-17T05:13:53.070Z,0.18
2022-12-17T05:16:53.897Z,0.12
2022-12-17T05:19:41.237Z,0.18
2022-12-17T05:22:27.924Z,0.18
2022-12-17T05:25:14.950Z,0.05
2022-12-17T05:28:01.667Z,-0.17
2022-12-17T05:30:48.395Z,-0.27
2022-12-17T05:33:35.850Z,-0.35
2022-12-17T05:36:23.945Z,0.20
2022-12-17T05:39:10.753Z,0.16
2022-12-17T05:41:57.863Z,-0.04
2022-12-17T05:44:44.686Z,-0.25
2022-12-17T05:47:32.115Z,-0.38
2022-12-17T05:50:19.018Z,-0.43
2022-12-17T05:53:05.730Z,-0.53
2022-12-17T05:55:52.939Z,-0.63
2022-12-17T05:58:40.373Z,-0.74
2022-12-17T06:01:27.122Z,-0.83
2022-12-17T06:04:14.291Z,-0.88
2022-12-17T06:07:01.311Z,-0.90
2022-12-17T06:09:48.265Z,-1.00
2022-12-17T06:12:35.133Z,-1.09
2022-12-17T06:15:23.538Z,-1.14
2022-12-17T06:18:16.937Z,-1.18
2022-12-17T06:21:05.309Z,-1.19
2022-12-17T06:23:52.930Z,-1.19
2022-12-17T06:26:40.678Z,-1.25
2022-12-17T06:29:30.746Z,-1.25
2022-12-17T06:32:17.453Z,-1.31
2022-12-17T06:35:04.878Z,-1.32
2022-12-17T06:37:51.801Z,-1.36
2022-12-17T06:40:38.609Z,-1.36
2022-12-17T06:43:25.940Z,-1.37
2022-12-17T06:46:12.781Z,-1.36
2022-12-17T06:48:59.965Z,-1.45
2022-12-17T06:51:46.763Z,-1.54
2022-12-17T06:54:33.785Z,-1.59
2022-12-17T06:57:20.515Z,-1.61
2022-12-17T08:42:06.611Z,-1.64
2022-12-17T08:49:23.056Z,-1.57
2022-12-17T09:07:03.797Z,-1.30
2022-12-17T09:10:54.717Z,-1.22
2022-12-17T09:19:49.175Z,-1.09
2022-12-17T09:28:07.022Z,-1.14
2022-12-17T09:45:41.645Z,-1.09
2022-12-17T09:48:48.007Z,-1.02
2022-12-17T09:51:45.148Z,-0.98
2022-12-17T09:55:00.804Z,-0.93
2022-12-17T09:57:53.159Z,-1.02
2022-12-17T10:01:39.176Z,-0.94
2022-12-17T10:04:37.883Z,-0.87
2022-12-17T10:07:36.870Z,-0.82
2022-12-17T10:10:41.678Z,-0.87
2022-12-17T10:13:37.000Z,-0.93
2022-12-17T10:16:43.932Z,-0.95
2022-12-17T10:19:44.049Z,-0.96
2022-12-17T10:22:38.957Z,-1.03
2022-12-17T10:25:40.818Z,-1.11
2022-12-17T10:28:38.576Z,-1.08
2022-12-17T10:31:34.862Z,-1.09
2022-12-17T10:34:26.987Z,-1.10
2022-12-17T10:37:14.186Z,-1.07
2022-12-17T10:40:01.797Z,-1.05
2022-12-17T10:42:58.344Z,-1.09
2022-12-17T10:45:51.246Z,-1.14
2022-12-17T10:48:41.924Z,-1.11
2022-12-17T10:51:50.403Z,-1.05
2022-12-17T10:54:50.077Z,-1.05
2022-12-17T10:57:57.927Z,-0.97
2022-12-17T11:00:50.477Z,-0.96
2022-12-17T11:03:52.951Z,-0.85
2022-12-17T11:06:51.151Z,-0.70
2022-12-17T11:09:57.304Z,-0.53
2022-12-17T11:12:53.386Z,-0.38
2022-12-17T11:16:07.021Z,-0.31
2022-12-17T11:19:20.289Z,-0.35
2022-12-17T11:22:10.663Z,-0.28
2022-12-17T11:25:10.046Z,-0.24
2022-12-17T11:28:03.566Z,-0.25
2022-12-17T11:31:04.769Z,-0.23
2022-12-17T11:34:14.756Z,-0.19
2022-12-17T11:37:13.875Z,-0.13
2022-12-17T11:40:31.883Z,-0.16
2022-12-17T11:43:35.669Z,-0.17
2022-12-17T11:47:04.274Z,-0.12
2022-12-17T11:50:14.256Z,-0.03
2022-12-17T11:53:40.532Z,0.01
2022-12-17T11:56:46.545Z,-0.03
2022-12-17T12:00:05.179Z,-0.05
2022-12-17T12:03:19.218Z,-0.09
2022-12-17T12:06:17.546Z,-0.06
2022-12-17T12:09:23.597Z,-0.14
2022-12-17T12:12:29.024Z,-0.19
2022-12-17T12:15:46.714Z,-0.08
2022-12-17T12:18:43.683Z,0.04
2022-12-17T12:21:53.690Z,0.18
2022-12-17T12:25:21.701Z,0.25
2022-12-17T12:28:15.319Z,0.36
2022-12-17T12:31:29.323Z,0.43
2022-12-17T12:34:23.699Z,0.49
2022-12-17T12:37:12.293Z,0.53
2022-12-17T12:40:37.420Z,0.57
2022-12-17T12:43:40.510Z,0.57
2022-12-17T12:46:35.301Z,0.59
2022-12-17T12:49:41.297Z,0.63
2022-12-17T12:52:40.354Z,0.70
2022-12-17T12:55:27.794Z,0.70
2022-12-17T12:58:22.078Z,0.73
2022-12-17T13:01:11.946Z,0.75
2022-12-17T14:48:56.996Z,-0.31
2022-12-17T14:51:44.354Z,-0.26
2022-12-17T14:54:22.283Z,-0.33
2022-12-17T14:56:50.720Z,-0.42
2022-12-17T14:59:38.357Z,-0.52
2022-12-17T15:02:26.766Z,-0.62
2022-12-17T15:05:02.617Z,-0.69
2022-12-17T15:07:32.417Z,-0.78
2022-12-17T15:10:00.800Z,-0.85
2022-12-17T15:12:30.155Z,-0.88
2022-12-17T15:14:59.635Z,-0.90
2022-12-17T15:17:28.196Z,-0.95
2022-12-17T15:19:57.285Z,-0.98
2022-12-17T15:22:25.971Z,-0.98
2022-12-17T15:24:54.462Z,-0.93
2022-12-17T15:27:23.133Z,-0.87
2022-12-17T15:29:52.024Z,-0.85
2022-12-17T15:32:22.933Z,-0.88
2022-12-17T15:34:51.556Z,-0.91
2022-12-17T15:37:25.525Z,-0.98
2022-12-17T15:39:55.982Z,-1.08
2022-12-17T15:42:43.322Z,-1.15
2022-12-17T15:45:12.213Z,-1.16
2022-12-17T15:47:40.600Z,-1.19
2022-12-17T15:50:09.982Z,-1.20
2022-12-17T15:52:38.889Z,-1.25
2022-12-17T15:55:08.377Z,-1.24
2022-12-17T15:57:36.973Z,-1.21
2022-12-17T16:00:06.627Z,-1.17
2022-12-17T16:02:36.353Z,-1.18
2022-12-17T16:05:06.479Z,-1.17
2022-12-17T16:07:35.179Z,-1.14
2022-12-17T16:10:05.799Z,-1.14
2022-12-17T16:12:34.831Z,-1.11
2022-12-17T16:15:04.454Z,-1.08
2022-12-17T16:17:33.134Z,-1.06
2022-12-17T16:20:02.006Z,-1.09
2022-12-17T16:22:30.480Z,-1.11
2022-12-17T16:24:59.184Z,-1.18
2022-12-17T16:27:28.584Z,-1.23
2022-12-17T16:29:57.314Z,-1.22
2022-12-17T16:32:28.367Z,-1.19
2022-12-17T16:35:01.484Z,-1.23
2022-12-17T16:37:30.068Z,-1.21
2022-12-17T16:40:00.301Z,-1.19
2022-12-17T16:42:29.670Z,-1.15
2022-12-17T16:44:59.320Z,-1.19
2022-12-17T16:47:29.000Z,-1.23
2022-12-17T16:49:57.799Z,-1.33
2022-12-17T16:52:26.258Z,-1.39
2022-12-17T16:54:54.863Z,-1.45
2022-12-17T16:57:24.467Z,-1.48
2022-12-17T16:59:54.070Z,-1.53
2022-12-17T17:02:22.896Z,-1.52
2022-12-17T17:04:51.707Z,-1.56
2022-12-17T17:07:20.217Z,-1.58
2022-12-17T17:09:49.023Z,-1.61
2022-12-17T17:12:17.659Z,-1.60
2022-12-17T17:14:46.792Z,-1.61
2022-12-17T17:17:17.966Z,-1.64
2022-12-17T17:19:46.460Z,-1.70
2022-12-17T17:22:15.316Z,-1.73
2022-12-17T17:24:43.919Z,-1.79
2022-12-17T17:27:13.407Z,-1.83
2022-12-17T17:29:41.935Z,-1.81
2022-12-17T17:32:11.711Z,-1.78
2022-12-17T17:34:41.950Z,-1.77
2022-12-17T17:37:10.916Z,-1.76
2022-12-17T17:39:39.587Z,-1.73
2022-12-17T17:42:09.213Z,-1.73
2022-12-17T17:44:38.952Z,-1.70
2022-12-17T17:47:07.700Z,-1.73
2022-12-17T17:49:36.913Z,-1.74
2022-12-17T17:52:10.368Z,-1.79
2022-12-17T17:54:40.521Z,-1.84
2022-12-17T17:57:09.869Z,-1.83
2022-12-17T17:59:40.479Z,-1.81
2022-12-17T18:02:11.487Z,-1.76
2022-12-17T18:04:40.857Z,-1.76
2022-12-17T18:07:28.290Z,-1.78
2022-12-17T18:10:00.181Z,-1.78
2022-12-17T18:12:48.300Z,-1.79
2022-12-17T18:15:18.569Z,-1.78
2022-12-17T18:17:51.833Z,-1.71
2022-12-17T18:20:21.192Z,-1.63
2022-12-17T18:22:50.935Z,-1.61
2022-12-17T18:25:20.017Z,-1.60
2022-12-17T18:27:54.247Z,-1.57
2022-12-17T18:30:24.526Z,-1.57
2022-12-17T18:32:53.446Z,-1.51
2022-12-17T18:35:22.231Z,-1.47
2022-12-17T18:37:50.886Z,-1.44
2022-12-17T18:40:20.418Z,-1.38
2022-12-17T18:43:09.279Z,-1.34
2022-12-17T18:45:45.354Z,-1.29
2022-12-17T18:48:15.253Z,-1.25
2022-12-17T18:50:45.530Z,-1.23
2022-12-17T18:53:14.495Z,-1.19
2022-12-17T18:55:45.344Z,-1.16
2022-12-17T18:58:16.841Z,-1.11
2022-12-17T19:00:46.585Z,-1.09
2022-12-17T19:03:18.248Z,-1.12
2022-12-17T19:05:54.214Z,-1.10
2022-12-17T19:08:26.067Z,-1.09
2022-12-17T19:10:57.673Z,-1.10
2022-12-17T19:13:27.091Z,-1.11
2022-12-17T19:15:58.456Z,-1.10
2022-12-17T19:18:27.862Z,-1.05
2022-12-17T19:20:59.768Z,-1.00
2022-12-17T19:23:33.512Z,-0.94
2022-12-17T19:26:15.100Z,-0.88
2022-12-17T19:28:47.137Z,-0.83
2022-12-17T19:31:20.341Z,-0.80
2022-12-17T19:33:50.101Z,-0.78
2022-12-17T19:36:26.703Z,-0.80
2022-12-17T19:39:01.489Z,-0.84
2022-12-17T19:41:34.159Z,-0.86
2022-12-17T19:44:11.670Z,-0.85
2022-12-17T19:46:42.014Z,-0.81
2022-12-17T19:49:13.431Z,-0.77
2022-12-17T19:51:44.841Z,-0.72
2022-12-17T19:54:18.761Z,-0.70
2022-12-17T19:56:49.034Z,-0.68
2022-12-17T19:59:20.103Z,-0.67
2022-12-17T20:01:51.068Z,-0.66
2022-12-17T20:04:23.545Z,-0.67
2022-12-17T20:06:52.635Z,-0.68
2022-12-17T20:09:22.364Z,-0.71
2022-12-17T20:11:51.714Z,-0.75
2022-12-17T20:14:28.125Z,-0.75
2022-12-17T20:16:59.551Z,-0.75
2022-12-17T20:19:31.657Z,-0.73
2022-12-17T20:22:05.014Z,-0.70
2022-12-17T20:24:38.220Z,-0.77
2022-12-17T20:27:09.198Z,-0.87
2022-12-17T20:29:38.928Z,-0.95
2022-12-17T20:32:10.789Z,-1.02
2022-12-17T20:34:40.896Z,-1.08
2022-12-17T20:37:11.809Z,-1.17
2022-12-17T20:39:42.042Z,-1.21
2022-12-17T20:42:12.884Z,-1.17
2022-12-17T20:44:43.047Z,-1.16
2022-12-17T20:47:13.114Z,-1.16
2022-12-17T20:49:45.110Z,-1.19
2022-12-17T20:52:14.445Z,-1.17
2022-12-17T20:54:44.989Z,-1.13
2022-12-17T20:57:15.624Z,-1.14
2022-12-17T20:59:46.932Z,-1.18
2022-12-17T21:02:18.491Z,-1.18
2022-12-17T21:04:49.924Z,-1.12
2022-12-17T21:07:19.523Z,-1.06
2022-12-17T21:09:49.789Z,-1.02
2022-12-17T21:12:21.947Z,-0.90
2022-12-17T21:14:52.554Z,-0.82
2022-12-17T21:17:26.350Z,-0.83
2022-12-17T21:19:56.239Z,-0.80
2022-12-17T21:22:27.324Z,-0.73
2022-12-17T21:24:56.799Z,-0.56
2022-12-17T21:27:27.331Z,-0.47
2022-12-17T21:30:00.791Z,-0.35
2022-12-17T21:32:33.816Z,-0.18
2022-12-17T21:35:03.714Z,-0.11
2022-12-17T21:37:34.267Z,-0.05
2022-12-17T21:40:03.469Z,-0.23
2022-12-17T21:42:51.322Z,-0.54
2022-12-17T21:45:20.507Z,-0.74
2022-12-17T21:47:50.317Z,-0.79
2022-12-17T21:50:20.708Z,-0.92
2022-12-17T21:52:52.325Z,-1.00
2022-12-17T21:55:24.218Z,-1.15
2022-12-17T21:57:54.108Z,-1.47
2022-12-17T22:00:27.726Z,-1.72
2022-12-17T22:02:58.687Z,-1.86
2022-12-17T22:05:30.316Z,-1.97
2022-12-17T22:07:59.656Z,-2.10
2022-12-17T22:10:30.325Z,-2.26
2022-12-17T22:13:29.657Z,-2.37
2022-12-17T22:15:58.677Z,-2.27
2022-12-17T22:18:29.776Z,-2.11
2022-12-17T22:21:01.079Z,-2.00
2022-12-17T22:23:30.173Z,-1.95
2022-12-17T22:25:59.715Z,-2.12
2022-12-17T22:28:30.160Z,-2.32
2022-12-17T22:31:23.792Z,-2.44
2022-12-17T22:34:49.762Z,-2.55
2022-12-17T22:39:40.602Z,-2.56
2022-12-17T22:43:01.543Z,-2.52
2022-12-17T22:44:44.634Z,-2.07
2022-12-17T22:45:31.940Z,-1.63
2022-12-17T22:48:01.154Z,-1.44
2022-12-17T22:50:34.794Z,-1.35
2022-12-17T22:53:09.306Z,-1.28
2022-12-17T22:55:39.092Z,-0.95
2022-12-17T22:58:11.064Z,-0.38
2022-12-17T23:00:41.109Z,0.10
2022-12-17T23:03:13.798Z,0.89
2022-12-17T23:05:43.982Z,1.95
2022-12-17T23:08:15.568Z,3.17
2022-12-17T23:10:48.011Z,3.78
2022-12-17T23:13:17.377Z,2.85
2022-12-17T23:15:46.494Z,1.81
2022-12-17T23:18:15.385Z,1.02
2022-12-17T23:20:44.782Z,0.44
2022-12-17T23:23:14.893Z,-0.02
2022-12-17T23:25:44.125Z,-0.40
2022-12-17T23:28:13.169Z,-0.73
2022-12-17T23:30:41.661Z,-0.99
2022-12-17T23:33:10.344Z,-1.21
2022-12-17T23:35:40.360Z,-1.42
2022-12-17T23:38:09.057Z,-1.60
2022-12-17T23:40:37.530Z,-1.76
2022-12-17T23:43:07.883Z,-1.71
2022-12-17T23:45:38.397Z,-0.91
2022-12-17T23:48:08.595Z,-0.24
2022-12-17T23:50:37.800Z,0.35
2022-12-17T23:53:06.383Z,0.70
2022-12-17T23:55:35.587Z,0.75
2022-12-17T23:58:04.193Z,0.77
